sensor_id;sensor_type;location;lat;lon;timestamp;P1;durP1;ratioP1;P2;durP2;ratioP2
25279;SDS011;13225;47.804;12.116;2022-08-19T00:01:41;12.43;;;9.65;;
25279;SDS011;13225;47.804;12.116;2022-08-19T00:04:09;11.45;;;9.07;;
25279;SDS011;13225;47.804;12.116;2022-08-19T00:06:37;11.88;;;8.77;;
25279;SDS011;13225;47.804;12.116;2022-08-19T00:09:04;12.80;;;8.68;;
25279;SDS011;13225;47.804;12.116;2022-08-19T00:11:33;11.02;;;9.18;;
25279;SDS011;13225;47.804;12.116;2022-08-19T00:14:01;11.32;;;9.18;;
25279;SDS011;13225;47.804;12.116;2022-08-19T00:16:27;10.63;;;8.85;;
25279;SDS011;13225;47.804;12.116;2022-08-19T00:18:53;11.60;;;9.00;;
25279;SDS011;13225;47.804;12.116;2022-08-19T00:21:20;9.93;;;8.38;;
25279;SDS011;13225;47.804;12.116;2022-08-19T00:23:46;15.60;;;9.25;;
25279;SDS011;13225;47.804;12.116;2022-08-19T00:26:13;12.10;;;9.35;;
25279;SDS011;13225;47.804;12.116;2022-08-19T00:28:39;12.95;;;8.88;;
25279;SDS011;13225;47.804;12.116;2022-08-19T00:31:05;13.00;;;9.63;;
25279;SDS011;13225;47.804;12.116;2022-08-19T00:33:32;11.68;;;9.52;;
25279;SDS011;13225;47.804;12.116;2022-08-19T00:35:59;13.13;;;9.20;;
25279;SDS011;13225;47.804;12.116;2022-08-19T00:38:29;13.65;;;9.35;;
25279;SDS011;13225;47.804;12.116;2022-08-19T00:40:56;15.40;;;9.30;;
25279;SDS011;13225;47.804;12.116;2022-08-19T00:43:22;12.55;;;9.02;;
25279;SDS011;13225;47.804;12.116;2022-08-19T00:45:49;12.00;;;8.80;;
25279;SDS011;13225;47.804;12.116;2022-08-19T00:48:15;12.30;;;9.00;;
25279;SDS011;13225;47.804;12.116;2022-08-19T00:50:42;10.65;;;9.13;;
25279;SDS011;13225;47.804;12.116;2022-08-19T00:53:09;11.55;;;8.73;;
25279;SDS011;13225;47.804;12.116;2022-08-19T00:55:37;8.93;;;8.02;;
25279;SDS011;13225;47.804;12.116;2022-08-19T00:58:13;9.98;;;8.98;;
25279;SDS011;13225;47.804;12.116;2022-08-19T01:00:41;10.88;;;8.95;;
25279;SDS011;13225;47.804;12.116;2022-08-19T01:03:08;10.70;;;8.77;;
25279;SDS011;13225;47.804;12.116;2022-08-19T01:05:35;10.77;;;9.20;;
25279;SDS011;13225;47.804;12.116;2022-08-19T01:08:04;10.65;;;8.77;;
25279;SDS011;13225;47.804;12.116;2022-08-19T01:10:33;13.38;;;8.70;;
25279;SDS011;13225;47.804;12.116;2022-08-19T01:13:08;10.63;;;8.07;;
25279;SDS011;13225;47.804;12.116;2022-08-19T01:16:10;9.68;;;8.68;;
25279;SDS011;13225;47.804;12.116;2022-08-19T01:18:31;9.93;;;8.10;;
25279;SDS011;13225;47.804;12.116;2022-08-19T01:21:04;11.52;;;9.00;;
25279;SDS011;13225;47.804;12.116;2022-08-19T01:23:35;10.15;;;8.48;;
25279;SDS011;13225;47.804;12.116;2022-08-19T01:26:11;10.43;;;8.75;;
25279;SDS011;13225;47.804;12.116;2022-08-19T01:28:40;10.10;;;8.65;;
25279;SDS011;13225;47.804;12.116;2022-08-19T01:31:07;12.45;;;9.15;;
25279;SDS011;13225;47.804;12.116;2022-08-19T01:33:36;11.38;;;9.30;;
25279;SDS011;13225;47.804;12.116;2022-08-19T01:36:07;12.85;;;9.50;;
25279;SDS011;13225;47.804;12.116;2022-08-19T01:38:36;11.43;;;8.93;;
25279;SDS011;13225;47.804;12.116;2022-08-19T01:41:03;12.70;;;9.90;;
25279;SDS011;13225;47.804;12.116;2022-08-19T01:43:30;10.63;;;8.93;;
25279;SDS011;13225;47.804;12.116;2022-08-19T01:45:57;10.65;;;8.77;;
25279;SDS011;13225;47.804;12.116;2022-08-19T01:48:22;11.93;;;9.88;;
25279;SDS011;13225;47.804;12.116;2022-08-19T01:50:48;12.00;;;9.35;;
25279;SDS011;13225;47.804;12.116;2022-08-19T01:53:14;11.50;;;8.95;;
25279;SDS011;13225;47.804;12.116;2022-08-19T01:55:41;12.38;;;9.07;;
25279;SDS011;13225;47.804;12.116;2022-08-19T01:58:12;11.65;;;9.15;;
25279;SDS011;13225;47.804;12.116;2022-08-19T02:00:41;11.07;;;8.70;;
25279;SDS011;13225;47.804;12.116;2022-08-19T02:03:08;11.65;;;9.35;;
25279;SDS011;13225;47.804;12.116;2022-08-19T02:05:35;12.18;;;8.48;;
25279;SDS011;13225;47.804;12.116;2022-08-19T02:08:00;12.73;;;9.00;;
25279;SDS011;13225;47.804;12.116;2022-08-19T02:10:26;10.90;;;8.85;;
25279;SDS011;13225;47.804;12.116;2022-08-19T02:12:51;7.82;;;6.93;;
25279;SDS011;13225;47.804;12.116;2022-08-19T02:15:17;10.10;;;7.90;;
25279;SDS011;13225;47.804;12.116;2022-08-19T02:17:44;8.77;;;7.22;;
25279;SDS011;13225;47.804;12.116;2022-08-19T02:20:11;8.25;;;6.20;;
25279;SDS011;13225;47.804;12.116;2022-08-19T02:22:39;5.88;;;4.78;;
25279;SDS011;13225;47.804;12.116;2022-08-19T02:25:07;6.40;;;4.78;;
25279;SDS011;13225;47.804;12.116;2022-08-19T02:27:37;3.47;;;3.13;;
25279;SDS011;13225;47.804;12.116;2022-08-19T02:30:04;3.25;;;2.97;;
25279;SDS011;13225;47.804;12.116;2022-08-19T02:32:31;2.53;;;2.20;;
25279;SDS011;13225;47.804;12.116;2022-08-19T02:34:57;2.13;;;2.00;;
25279;SDS011;13225;47.804;12.116;2022-08-19T02:37:22;2.00;;;1.80;;
25279;SDS011;13225;47.804;12.116;2022-08-19T02:40:07;1.88;;;1.77;;
25279;SDS011;13225;47.804;12.116;2022-08-19T02:42:33;1.63;;;1.52;;
25279;SDS011;13225;47.804;12.116;2022-08-19T02:44:58;2.00;;;1.90;;
25279;SDS011;13225;47.804;12.116;2022-08-19T02:47:25;1.50;;;1.40;;
25279;SDS011;13225;47.804;12.116;2022-08-19T02:49:50;1.98;;;1.60;;
25279;SDS011;13225;47.804;12.116;2022-08-19T02:52:16;1.50;;;1.40;;
25279;SDS011;13225;47.804;12.116;2022-08-19T02:54:42;1.92;;;1.70;;
25279;SDS011;13225;47.804;12.116;2022-08-19T02:57:09;1.73;;;1.63;;
25279;SDS011;13225;47.804;12.116;2022-08-19T02:59:35;1.83;;;1.60;;
25279;SDS011;13225;47.804;12.116;2022-08-19T03:02:00;1.85;;;1.75;;
25279;SDS011;13225;47.804;12.116;2022-08-19T03:04:26;1.63;;;1.52;;
25279;SDS011;13225;47.804;12.116;2022-08-19T03:06:52;1.73;;;1.63;;
25279;SDS011;13225;47.804;12.116;2022-08-19T03:09:18;1.60;;;1.50;;
25279;SDS011;13225;47.804;12.116;2022-08-19T03:11:45;1.70;;;1.60;;
25279;SDS011;13225;47.804;12.116;2022-08-19T03:14:11;1.90;;;1.80;;
25279;SDS011;13225;47.804;12.116;2022-08-19T03:16:42;1.88;;;1.77;;
25279;SDS011;13225;47.804;12.116;2022-08-19T03:19:10;1.67;;;1.58;;
25279;SDS011;13225;47.804;12.116;2022-08-19T03:21:36;1.75;;;1.65;;
25279;SDS011;13225;47.804;12.116;2022-08-19T03:24:02;1.80;;;1.70;;
25279;SDS011;13225;47.804;12.116;2022-08-19T03:26:30;1.70;;;1.60;;
25279;SDS011;13225;47.804;12.116;2022-08-19T03:28:56;1.60;;;1.50;;
25279;SDS011;13225;47.804;12.116;2022-08-19T03:31:23;1.67;;;1.58;;
25279;SDS011;13225;47.804;12.116;2022-08-19T03:33:51;3.67;;;2.72;;
25279;SDS011;13225;47.804;12.116;2022-08-19T03:36:18;1.63;;;1.52;;
25279;SDS011;13225;47.804;12.116;2022-08-19T03:38:48;1.70;;;1.40;;
25279;SDS011;13225;47.804;12.116;2022-08-19T03:41:17;1.75;;;1.60;;
25279;SDS011;13225;47.804;12.116;2022-08-19T03:43:44;1.75;;;1.52;;
25279;SDS011;13225;47.804;12.116;2022-08-19T03:46:21;1.60;;;1.50;;
25279;SDS011;13225;47.804;12.116;2022-08-19T03:48:49;4.43;;;2.20;;
25279;SDS011;13225;47.804;12.116;2022-08-19T03:51:20;1.92;;;1.80;;
25279;SDS011;13225;47.804;12.116;2022-08-19T03:53:50;1.88;;;1.77;;
25279;SDS011;13225;47.804;12.116;2022-08-19T03:56:16;2.78;;;1.75;;
25279;SDS011;13225;47.804;12.116;2022-08-19T03:58:41;2.53;;;1.85;;
25279;SDS011;13225;47.804;12.116;2022-08-19T04:01:08;4.97;;;2.00;;
25279;SDS011;13225;47.804;12.116;2022-08-19T04:03:35;1.73;;;1.63;;
25279;SDS011;13225;47.804;12.116;2022-08-19T04:06:17;4.43;;;1.92;;
25279;SDS011;13225;47.804;12.116;2022-08-19T04:08:51;1.85;;;1.75;;
25279;SDS011;13225;47.804;12.116;2022-08-19T04:11:22;1.80;;;1.70;;
25279;SDS011;13225;47.804;12.116;2022-08-19T04:13:51;2.28;;;1.65;;
25279;SDS011;13225;47.804;12.116;2022-08-19T04:16:20;2.50;;;1.90;;
25279;SDS011;13225;47.804;12.116;2022-08-19T04:18:47;2.20;;;2.00;;
25279;SDS011;13225;47.804;12.116;2022-08-19T04:21:18;2.00;;;1.90;;
25279;SDS011;13225;47.804;12.116;2022-08-19T04:23:46;2.90;;;2.70;;
25279;SDS011;13225;47.804;12.116;2022-08-19T04:26:16;2.88;;;2.67;;
25279;SDS011;13225;47.804;12.116;2022-08-19T04:28:44;2.55;;;2.35;;
25279;SDS011;13225;47.804;12.116;2022-08-19T04:31:17;3.85;;;3.53;;
25279;SDS011;13225;47.804;12.116;2022-08-19T04:33:44;4.85;;;3.83;;
25279;SDS011;13225;47.804;12.116;2022-08-19T04:36:20;3.55;;;3.25;;
25279;SDS011;13225;47.804;12.116;2022-08-19T04:38:49;3.03;;;2.75;;
25279;SDS011;13225;47.804;12.116;2022-08-19T04:41:17;3.17;;;2.60;;
25279;SDS011;13225;47.804;12.116;2022-08-19T04:44:02;2.60;;;2.40;;
25279;SDS011;13225;47.804;12.116;2022-08-19T04:46:28;2.65;;;2.40;;
25279;SDS011;13225;47.804;12.116;2022-08-19T04:48:56;2.90;;;2.70;;
25279;SDS011;13225;47.804;12.116;2022-08-19T04:51:22;2.88;;;2.53;;
25279;SDS011;13225;47.804;12.116;2022-08-19T04:53:48;3.38;;;2.70;;
25279;SDS011;13225;47.804;12.116;2022-08-19T04:56:14;3.10;;;2.80;;
25279;SDS011;13225;47.804;12.116;2022-08-19T04:58:42;2.72;;;2.45;;
25279;SDS011;13225;47.804;12.116;2022-08-19T05:01:13;3.97;;;2.60;;
25279;SDS011;13225;47.804;12.116;2022-08-19T05:03:42;3.25;;;2.95;;
25279;SDS011;13225;47.804;12.116;2022-08-19T05:06:09;5.28;;;3.03;;
25279;SDS011;13225;47.804;12.116;2022-08-19T05:08:38;3.60;;;2.67;;
25279;SDS011;13225;47.804;12.116;2022-08-19T05:11:17;4.43;;;3.10;;
25279;SDS011;13225;47.804;12.116;2022-08-19T05:13:45;3.97;;;3.58;;
25279;SDS011;13225;47.804;12.116;2022-08-19T05:16:14;4.57;;;3.22;;
25279;SDS011;13225;47.804;12.116;2022-08-19T05:18:41;4.80;;;3.15;;
25279;SDS011;13225;47.804;12.116;2022-08-19T05:21:26;3.35;;;3.05;;
25279;SDS011;13225;47.804;12.116;2022-08-19T05:24:12;4.20;;;3.38;;
25279;SDS011;13225;47.804;12.116;2022-08-19T05:26:39;4.70;;;3.58;;
25279;SDS011;13225;47.804;12.116;2022-08-19T05:29:07;4.55;;;3.95;;
25279;SDS011;13225;47.804;12.116;2022-08-19T05:31:33;5.95;;;4.05;;
25279;SDS011;13225;47.804;12.116;2022-08-19T05:34:00;6.22;;;4.07;;
25279;SDS011;13225;47.804;12.116;2022-08-19T05:36:27;5.35;;;4.85;;
25279;SDS011;13225;47.804;12.116;2022-08-19T05:38:54;6.90;;;5.68;;
25279;SDS011;13225;47.804;12.116;2022-08-19T05:41:20;9.00;;;6.75;;
25279;SDS011;13225;47.804;12.116;2022-08-19T05:43:55;10.45;;;7.28;;
25279;SDS011;13225;47.804;12.116;2022-08-19T05:46:21;9.43;;;6.60;;
25279;SDS011;13225;47.804;12.116;2022-08-19T05:48:48;10.27;;;8.45;;
25279;SDS011;13225;47.804;12.116;2022-08-19T05:51:14;12.05;;;9.43;;
25279;SDS011;13225;47.804;12.116;2022-08-19T05:53:41;12.30;;;9.02;;
25279;SDS011;13225;47.804;12.116;2022-08-19T05:56:09;12.80;;;10.10;;
25279;SDS011;13225;47.804;12.116;2022-08-19T05:58:36;10.98;;;9.18;;
25279;SDS011;13225;47.804;12.116;2022-08-19T06:01:03;15.10;;;10.30;;
25279;SDS011;13225;47.804;12.116;2022-08-19T06:03:35;14.83;;;11.00;;
25279;SDS011;13225;47.804;12.116;2022-08-19T06:06:02;13.50;;;10.52;;
25279;SDS011;13225;47.804;12.116;2022-08-19T06:08:29;14.55;;;10.25;;
25279;SDS011;13225;47.804;12.116;2022-08-19T06:10:55;13.48;;;10.40;;
25279;SDS011;13225;47.804;12.116;2022-08-19T06:13:21;14.25;;;10.68;;
25279;SDS011;13225;47.804;12.116;2022-08-19T06:15:49;15.23;;;11.25;;
25279;SDS011;13225;47.804;12.116;2022-08-19T06:18:15;12.95;;;10.15;;
25279;SDS011;13225;47.804;12.116;2022-08-19T06:20:41;13.38;;;9.80;;
25279;SDS011;13225;47.804;12.116;2022-08-19T06:23:07;12.80;;;9.77;;
25279;SDS011;13225;47.804;12.116;2022-08-19T06:25:35;13.90;;;8.95;;
25279;SDS011;13225;47.804;12.116;2022-08-19T06:28:01;11.68;;;9.75;;
25279;SDS011;13225;47.804;12.116;2022-08-19T06:30:27;11.65;;;9.90;;
25279;SDS011;13225;47.804;12.116;2022-08-19T06:32:53;8.70;;;6.53;;
25279;SDS011;13225;47.804;12.116;2022-08-19T06:35:19;12.77;;;9.43;;
25279;SDS011;13225;47.804;12.116;2022-08-19T06:37:44;10.98;;;7.28;;
25279;SDS011;13225;47.804;12.116;2022-08-19T06:40:10;6.15;;;5.55;;
25279;SDS011;13225;47.804;12.116;2022-08-19T06:42:37;9.18;;;5.82;;
25279;SDS011;13225;47.804;12.116;2022-08-19T06:45:03;8.88;;;6.63;;
25279;SDS011;13225;47.804;12.116;2022-08-19T06:47:31;9.43;;;8.55;;
25279;SDS011;13225;47.804;12.116;2022-08-19T06:49:58;7.00;;;6.35;;
25279;SDS011;13225;47.804;12.116;2022-08-19T06:52:31;8.27;;;7.18;;
25279;SDS011;13225;47.804;12.116;2022-08-19T06:54:59;7.45;;;6.32;;
25279;SDS011;13225;47.804;12.116;2022-08-19T06:57:25;7.32;;;5.78;;
25279;SDS011;13225;47.804;12.116;2022-08-19T06:59:52;6.80;;;4.50;;
25279;SDS011;13225;47.804;12.116;2022-08-19T07:02:18;7.35;;;5.40;;
25279;SDS011;13225;47.804;12.116;2022-08-19T07:04:45;9.15;;;4.30;;
25279;SDS011;13225;47.804;12.116;2022-08-19T07:07:11;4.68;;;4.28;;
25279;SDS011;13225;47.804;12.116;2022-08-19T07:09:40;4.78;;;3.47;;
25279;SDS011;13225;47.804;12.116;2022-08-19T07:12:09;5.97;;;4.40;;
25279;SDS011;13225;47.804;12.116;2022-08-19T07:14:37;5.30;;;4.53;;
25279;SDS011;13225;47.804;12.116;2022-08-19T07:17:05;5.97;;;3.95;;
25279;SDS011;13225;47.804;12.116;2022-08-19T07:19:32;4.70;;;4.20;;
25279;SDS011;13225;47.804;12.116;2022-08-19T07:22:00;6.93;;;4.88;;
25279;SDS011;13225;47.804;12.116;2022-08-19T07:24:28;6.05;;;4.28;;
25279;SDS011;13225;47.804;12.116;2022-08-19T07:26:55;4.88;;;4.38;;
25279;SDS011;13225;47.804;12.116;2022-08-19T07:29:25;5.00;;;3.80;;
25279;SDS011;13225;47.804;12.116;2022-08-19T07:31:52;6.47;;;4.80;;
25279;SDS011;13225;47.804;12.116;2022-08-19T07:34:21;5.18;;;4.03;;
25279;SDS011;13225;47.804;12.116;2022-08-19T07:36:48;4.93;;;4.22;;
25279;SDS011;13225;47.804;12.116;2022-08-19T07:39:16;5.90;;;4.55;;
25279;SDS011;13225;47.804;12.116;2022-08-19T07:41:44;5.63;;;4.60;;
25279;SDS011;13225;47.804;12.116;2022-08-19T07:44:11;6.15;;;5.00;;
25279;SDS011;13225;47.804;12.116;2022-08-19T07:46:39;5.03;;;4.22;;
25279;SDS011;13225;47.804;12.116;2022-08-19T07:49:06;4.57;;;4.18;;
25279;SDS011;13225;47.804;12.116;2022-08-19T07:51:34;4.70;;;4.13;;
25279;SDS011;13225;47.804;12.116;2022-08-19T07:54:00;5.40;;;4.35;;
25279;SDS011;13225;47.804;12.116;2022-08-19T07:56:25;6.03;;;4.03;;
25279;SDS011;13225;47.804;12.116;2022-08-19T07:58:52;5.63;;;4.45;;
25279;SDS011;13225;47.804;12.116;2022-08-19T08:01:23;6.15;;;4.53;;
25279;SDS011;13225;47.804;12.116;2022-08-19T08:03:51;7.35;;;5.32;;
25279;SDS011;13225;47.804;12.116;2022-08-19T08:06:36;5.15;;;4.65;;
25279;SDS011;13225;47.804;12.116;2022-08-19T08:09:31;6.53;;;5.57;;
25279;SDS011;13225;47.804;12.116;2022-08-19T08:12:01;7.10;;;5.47;;
25279;SDS011;13225;47.804;12.116;2022-08-19T08:14:53;5.80;;;4.88;;
25279;SDS011;13225;47.804;12.116;2022-08-19T08:17:19;6.25;;;5.00;;
25279;SDS011;13225;47.804;12.116;2022-08-19T08:19:47;5.90;;;4.85;;
25279;SDS011;13225;47.804;12.116;2022-08-19T08:22:15;6.07;;;5.47;;
25279;SDS011;13225;47.804;12.116;2022-08-19T08:27:38;6.50;;;4.55;;
25279;SDS011;13225;47.804;12.116;2022-08-19T08:30:09;4.65;;;3.85;;
25279;SDS011;13225;47.804;12.116;2022-08-19T08:32:37;4.60;;;3.97;;
25279;SDS011;13225;47.804;12.116;2022-08-19T08:35:05;5.38;;;4.20;;
25279;SDS011;13225;47.804;12.116;2022-08-19T08:37:32;6.28;;;4.45;;
25279;SDS011;13225;47.804;12.116;2022-08-19T08:39:58;6.57;;;4.10;;
25279;SDS011;13225;47.804;12.116;2022-08-19T08:42:31;5.70;;;4.05;;
25279;SDS011;13225;47.804;12.116;2022-08-19T08:47:31;7.22;;;5.00;;
25279;SDS011;13225;47.804;12.116;2022-08-19T08:50:08;5.03;;;4.53;;
25279;SDS011;13225;47.804;12.116;2022-08-19T08:52:43;6.35;;;5.25;;
25279;SDS011;13225;47.804;12.116;2022-08-19T08:55:12;6.47;;;5.18;;
25279;SDS011;13225;47.804;12.116;2022-08-19T08:57:51;7.85;;;5.57;;
25279;SDS011;13225;47.804;12.116;2022-08-19T09:00:28;5.22;;;4.72;;
25279;SDS011;13225;47.804;12.116;2022-08-19T09:05:24;6.60;;;5.22;;
25279;SDS011;13225;47.804;12.116;2022-08-19T09:10:51;5.53;;;4.90;;
25279;SDS011;13225;47.804;12.116;2022-08-19T09:16:02;6.15;;;5.28;;
25279;SDS011;13225;47.804;12.116;2022-08-19T09:21:12;7.35;;;5.88;;
25279;SDS011;13225;47.804;12.116;2022-08-19T09:23:40;5.70;;;5.10;;
25279;SDS011;13225;47.804;12.116;2022-08-19T09:26:06;6.57;;;5.18;;
25279;SDS011;13225;47.804;12.116;2022-08-19T09:28:34;6.80;;;5.63;;
25279;SDS011;13225;47.804;12.116;2022-08-19T09:31:00;5.22;;;4.70;;
25279;SDS011;13225;47.804;12.116;2022-08-19T09:33:25;6.55;;;5.25;;
25279;SDS011;13225;47.804;12.116;2022-08-19T09:36:00;7.10;;;6.05;;
25279;SDS011;13225;47.804;12.116;2022-08-19T09:38:28;5.53;;;4.97;;
25279;SDS011;13225;47.804;12.116;2022-08-19T09:40:54;5.80;;;5.22;;
25279;SDS011;13225;47.804;12.116;2022-08-19T09:43:19;6.57;;;5.75;;
25279;SDS011;13225;47.804;12.116;2022-08-19T09:45:45;6.35;;;5.38;;
25279;SDS011;13225;47.804;12.116;2022-08-19T09:48:11;6.05;;;5.25;;
25279;SDS011;13225;47.804;12.116;2022-08-19T09:50:39;6.18;;;5.55;;
25279;SDS011;13225;47.804;12.116;2022-08-19T09:53:04;7.40;;;6.03;;
25279;SDS011;13225;47.804;12.116;2022-08-19T09:55:31;7.03;;;5.75;;
25279;SDS011;13225;47.804;12.116;2022-08-19T09:57:57;7.38;;;5.40;;
25279;SDS011;13225;47.804;12.116;2022-08-19T10:00:23;7.18;;;5.55;;
25279;SDS011;13225;47.804;12.116;2022-08-19T10:02:48;5.22;;;4.72;;
25279;SDS011;13225;47.804;12.116;2022-08-19T10:05:14;5.28;;;4.25;;
25279;SDS011;13225;47.804;12.116;2022-08-19T10:07:58;4.45;;;4.03;;
25279;SDS011;13225;47.804;12.116;2022-08-19T10:10:25;6.43;;;4.78;;
25279;SDS011;13225;47.804;12.116;2022-08-19T10:12:51;4.93;;;4.43;;
25279;SDS011;13225;47.804;12.116;2022-08-19T10:15:17;4.03;;;3.63;;
25279;SDS011;13225;47.804;12.116;2022-08-19T10:17:46;4.47;;;4.00;;
25279;SDS011;13225;47.804;12.116;2022-08-19T10:20:11;4.38;;;3.85;;
25279;SDS011;13225;47.804;12.116;2022-08-19T10:22:37;4.53;;;4.13;;
25279;SDS011;13225;47.804;12.116;2022-08-19T10:25:04;4.70;;;4.10;;
25279;SDS011;13225;47.804;12.116;2022-08-19T10:27:30;4.53;;;4.07;;
25279;SDS011;13225;47.804;12.116;2022-08-19T10:29:56;5.60;;;4.50;;
25279;SDS011;13225;47.804;12.116;2022-08-19T10:32:22;6.10;;;4.43;;
25279;SDS011;13225;47.804;12.116;2022-08-19T10:34:48;8.60;;;7.65;;
25279;SDS011;13225;47.804;12.116;2022-08-19T10:37:15;4.90;;;4.40;;
25279;SDS011;13225;47.804;12.116;2022-08-19T10:39:42;5.32;;;4.80;;
25279;SDS011;13225;47.804;12.116;2022-08-19T10:42:12;4.65;;;4.25;;
25279;SDS011;13225;47.804;12.116;2022-08-19T10:44:38;3.85;;;3.55;;
25279;SDS011;13225;47.804;12.116;2022-08-19T10:47:05;4.22;;;3.83;;
25279;SDS011;13225;47.804;12.116;2022-08-19T10:49:31;4.70;;;4.20;;
25279;SDS011;13225;47.804;12.116;2022-08-19T10:52:17;4.20;;;3.72;;
25279;SDS011;13225;47.804;12.116;2022-08-19T10:55:03;4.60;;;4.05;;
25279;SDS011;13225;47.804;12.116;2022-08-19T10:57:49;4.68;;;4.25;;
25279;SDS011;13225;47.804;12.116;2022-08-19T11:00:15;4.38;;;3.55;;
25279;SDS011;13225;47.804;12.116;2022-08-19T11:02:41;5.00;;;4.50;;
25279;SDS011;13225;47.804;12.116;2022-08-19T11:05:07;4.82;;;4.43;;
25279;SDS011;13225;47.804;12.116;2022-08-19T11:07:36;5.13;;;4.63;;
25279;SDS011;13225;47.804;12.116;2022-08-19T11:10:03;5.30;;;4.80;;
25279;SDS011;13225;47.804;12.116;2022-08-19T11:12:29;5.47;;;4.95;;
25279;SDS011;13225;47.804;12.116;2022-08-19T11:14:56;5.93;;;5.25;;
25279;SDS011;13225;47.804;12.116;2022-08-19T11:17:22;4.45;;;4.00;;
25279;SDS011;13225;47.804;12.116;2022-08-19T11:19:48;6.00;;;4.43;;
25279;SDS011;13225;47.804;12.116;2022-08-19T11:22:15;5.55;;;4.65;;
25279;SDS011;13225;47.804;12.116;2022-08-19T11:24:42;5.97;;;5.18;;
25279;SDS011;13225;47.804;12.116;2022-08-19T11:27:08;6.32;;;5.55;;
25279;SDS011;13225;47.804;12.116;2022-08-19T11:29:35;6.22;;;4.82;;
25279;SDS011;13225;47.804;12.116;2022-08-19T11:32:03;6.78;;;5.22;;
25279;SDS011;13225;47.804;12.116;2022-08-19T11:34:31;4.93;;;4.35;;
25279;SDS011;13225;47.804;12.116;2022-08-19T11:36:57;5.28;;;4.78;;
25279;SDS011;13225;47.804;12.116;2022-08-19T11:39:24;5.07;;;4.55;;
25279;SDS011;13225;47.804;12.116;2022-08-19T11:41:51;5.35;;;4.72;;
25279;SDS011;13225;47.804;12.116;2022-08-19T11:44:19;5.22;;;4.72;;
25279;SDS011;13225;47.804;12.116;2022-08-19T11:46:45;5.22;;;4.63;;
25279;SDS011;13225;47.804;12.116;2022-08-19T11:49:15;5.03;;;4.32;;
25279;SDS011;13225;47.804;12.116;2022-08-19T11:51:44;4.75;;;4.35;;
25279;SDS011;13225;47.804;12.116;2022-08-19T11:54:10;5.20;;;4.20;;
25279;SDS011;13225;47.804;12.116;2022-08-19T11:56:37;3.60;;;3.30;;
25279;SDS011;13225;47.804;12.116;2022-08-19T11:59:04;4.28;;;3.90;;
25279;SDS011;13225;47.804;12.116;2022-08-19T12:01:30;5.10;;;4.07;;
25279;SDS011;13225;47.804;12.116;2022-08-19T12:03:56;3.85;;;3.10;;
25279;SDS011;13225;47.804;12.116;2022-08-19T12:06:32;3.88;;;3.55;;
25279;SDS011;13225;47.804;12.116;2022-08-19T12:09:00;3.85;;;3.35;;
25279;SDS011;13225;47.804;12.116;2022-08-19T12:11:29;4.45;;;3.63;;
25279;SDS011;13225;47.804;12.116;2022-08-19T12:13:55;3.47;;;3.17;;
25279;SDS011;13225;47.804;12.116;2022-08-19T12:16:23;4.03;;;3.63;;
25279;SDS011;13225;47.804;12.116;2022-08-19T12:18:51;4.03;;;3.50;;
25279;SDS011;13225;47.804;12.116;2022-08-19T12:21:20;4.18;;;3.78;;
25279;SDS011;13225;47.804;12.116;2022-08-19T12:23:49;4.03;;;3.63;;
25279;SDS011;13225;47.804;12.116;2022-08-19T12:26:16;4.13;;;3.72;;
25279;SDS011;13225;47.804;12.116;2022-08-19T12:28:43;4.65;;;4.18;;
25279;SDS011;13225;47.804;12.116;2022-08-19T12:31:09;5.22;;;4.28;;
25279;SDS011;13225;47.804;12.116;2022-08-19T12:33:39;4.88;;;4.40;;
25279;SDS011;13225;47.804;12.116;2022-08-19T12:36:07;4.50;;;4.05;;
25279;SDS011;13225;47.804;12.116;2022-08-19T12:38:35;5.00;;;4.40;;
25279;SDS011;13225;47.804;12.116;2022-08-19T12:41:01;5.60;;;4.72;;
25279;SDS011;13225;47.804;12.116;2022-08-19T12:43:31;4.60;;;4.07;;
25279;SDS011;13225;47.804;12.116;2022-08-19T12:46:04;5.13;;;4.32;;
25279;SDS011;13225;47.804;12.116;2022-08-19T12:48:31;4.40;;;3.92;;
25279;SDS011;13225;47.804;12.116;2022-08-19T12:50:57;5.03;;;3.90;;
25279;SDS011;13225;47.804;12.116;2022-08-19T12:53:23;4.97;;;4.50;;
25279;SDS011;13225;47.804;12.116;2022-08-19T12:55:58;4.80;;;4.10;;
25279;SDS011;13225;47.804;12.116;2022-08-19T12:58:25;6.13;;;4.18;;
25279;SDS011;13225;47.804;12.116;2022-08-19T13:00:51;5.07;;;3.88;;
25279;SDS011;13225;47.804;12.116;2022-08-19T13:03:17;4.53;;;4.05;;
25279;SDS011;13225;47.804;12.116;2022-08-19T13:05:43;4.50;;;4.10;;
25279;SDS011;13225;47.804;12.116;2022-08-19T13:08:09;3.85;;;3.53;;
25279;SDS011;13225;47.804;12.116;2022-08-19T13:10:36;3.78;;;3.47;;
25279;SDS011;13225;47.804;12.116;2022-08-19T13:13:03;4.25;;;3.83;;
25279;SDS011;13225;47.804;12.116;2022-08-19T13:15:33;4.00;;;3.70;;
25279;SDS011;13225;47.804;12.116;2022-08-19T13:18:05;4.82;;;4.15;;
25279;SDS011;13225;47.804;12.116;2022-08-19T13:20:31;4.35;;;3.60;;
25279;SDS011;13225;47.804;12.116;2022-08-19T13:22:57;4.22;;;3.75;;
25279;SDS011;13225;47.804;12.116;2022-08-19T13:25:23;6.10;;;3.65;;
25279;SDS011;13225;47.804;12.116;2022-08-19T13:27:50;4.65;;;4.05;;
25279;SDS011;13225;47.804;12.116;2022-08-19T13:30:16;6.45;;;3.75;;
25279;SDS011;13225;47.804;12.116;2022-08-19T13:33:01;4.85;;;3.85;;
25279;SDS011;13225;47.804;12.116;2022-08-19T13:35:40;5.50;;;4.05;;
25279;SDS011;13225;47.804;12.116;2022-08-19T13:38:06;4.18;;;3.78;;
25279;SDS011;13225;47.804;12.116;2022-08-19T13:40:32;3.65;;;3.33;;
25279;SDS011;13225;47.804;12.116;2022-08-19T13:43:02;3.72;;;3.42;;
25279;SDS011;13225;47.804;12.116;2022-08-19T13:45:29;4.28;;;3.03;;
25279;SDS011;13225;47.804;12.116;2022-08-19T13:47:58;4.28;;;3.92;;
25279;SDS011;13225;47.804;12.116;2022-08-19T13:50:28;3.80;;;3.50;;
25279;SDS011;13225;47.804;12.116;2022-08-19T13:52:56;2.85;;;2.65;;
25279;SDS011;13225;47.804;12.116;2022-08-19T13:55:22;3.10;;;2.90;;
25279;SDS011;13225;47.804;12.116;2022-08-19T13:57:55;3.25;;;2.95;;
25279;SDS011;13225;47.804;12.116;2022-08-19T14:00:23;3.42;;;3.13;;
25279;SDS011;13225;47.804;12.116;2022-08-19T14:02:52;3.65;;;3.08;;
25279;SDS011;13225;47.804;12.116;2022-08-19T14:05:19;3.20;;;2.67;;
25279;SDS011;13225;47.804;12.116;2022-08-19T14:07:45;2.92;;;2.63;;
25279;SDS011;13225;47.804;12.116;2022-08-19T14:10:13;3.17;;;2.55;;
25279;SDS011;13225;47.804;12.116;2022-08-19T14:12:40;2.83;;;2.63;;
25279;SDS011;13225;47.804;12.116;2022-08-19T14:15:07;2.83;;;2.63;;
25279;SDS011;13225;47.804;12.116;2022-08-19T14:17:34;2.72;;;2.53;;
25279;SDS011;13225;47.804;12.116;2022-08-19T14:20:03;3.30;;;3.00;;
25279;SDS011;13225;47.804;12.116;2022-08-19T14:22:33;4.20;;;3.10;;
25279;SDS011;13225;47.804;12.116;2022-08-19T14:25:05;3.28;;;2.97;;
25279;SDS011;13225;47.804;12.116;2022-08-19T14:27:33;4.07;;;3.10;;
25279;SDS011;13225;47.804;12.116;2022-08-19T14:30:00;3.97;;;3.63;;
25279;SDS011;13225;47.804;12.116;2022-08-19T14:32:27;6.07;;;3.50;;
25279;SDS011;13225;47.804;12.116;2022-08-19T14:34:53;3.67;;;3.38;;
25279;SDS011;13225;47.804;12.116;2022-08-19T14:37:19;3.97;;;3.42;;
25279;SDS011;13225;47.804;12.116;2022-08-19T14:39:47;3.72;;;3.42;;
25279;SDS011;13225;47.804;12.116;2022-08-19T14:42:13;5.05;;;3.83;;
25279;SDS011;13225;47.804;12.116;2022-08-19T14:44:39;5.15;;;4.22;;
25279;SDS011;13225;47.804;12.116;2022-08-19T14:47:06;4.43;;;4.03;;
25279;SDS011;13225;47.804;12.116;2022-08-19T14:49:32;4.78;;;4.25;;
25279;SDS011;13225;47.804;12.116;2022-08-19T14:52:00;4.18;;;3.78;;
25279;SDS011;13225;47.804;12.116;2022-08-19T14:54:27;3.72;;;3.35;;